Terminal Aerodrome Forecast
Issued by NWS Billings, MT

Home | Current Version | Previous Version | Graphics & Text | Print | Product List | Glossary On
Versions: 1 2 3 4 5 6 7 8 9 10 11 12 13 14 15 16 17 18 19 20 21 22 23 24 25 26 27 28 29 30 31 32 33 34 35 36 37 38 39 40 41 42 43 44 45 46
000
FTUS45 KBYZ 271030 AAA
TAFMLS
TAF AMD
KMLS 271030Z 2711/2806 13010KT 6SM -SN BR FEW015 OVC050
     FM271200 13009KT 2SM BR BKN012
     FM271600 14006KT P6SM BKN015
     FM271800 24007KT P6SM BKN100=

USA.gov is the U.S. government's official web portal to all federal, state and local government web resources and services.